Time;durP1;ratioP1;P1;durP2;ratioP2;P2;SDS_P1;SDS_P2;PMS_P1;PMS_P2;Temp;Humidity;BMP_temperature;BMP_pressure;BME280_temperature;BME280_humidity;BME280_pressure;Samples;Min_cycle;Max_cycle;Signal;HPM_P1;HPM_P2
2022/09/13 00:01:12;;;;;;;;;;;17.80;99.90;;;;;;4964118;28;19926;-79
2022/09/13 00:03:37;;;;;;;;;;;17.80;99.90;;;;;;4963527;28;20389;-78
2022/09/13 00:06:21;;;;;;;;;;;17.90;99.90;;;;;;4964042;28;20064;-78
2022/09/13 00:08:47;;;;;;;;;;;17.80;99.90;;;;;;4974480;28;20125;-78
2022/09/13 00:11:14;;;;;;;;;;;17.80;99.90;;;;;;4982861;28;19925;-78
2022/09/13 00:13:40;;;;;;;;;;;17.80;99.90;;;;;;4983514;28;20288;-78
2022/09/13 00:16:09;;;;;;;;;;;17.80;99.90;;;;;;4983054;28;19925;-78
2022/09/13 00:18:35;;;;;;;;;;;17.90;99.90;;;;;;4982819;28;19926;-78
2022/09/13 00:21:07;;;;;;;;;;;17.80;99.90;;;;;;4982825;28;19926;-78
2022/09/13 00:23:33;;;;;;;;;;;17.80;99.90;;;;;;4982176;28;19969;-78
2022/09/13 00:26:03;;;;;;;;;;;17.80;99.90;;;;;;4983223;28;20035;-78
2022/09/13 00:28:28;;;;;;;;;;;17.80;99.90;;;;;;4983665;28;19930;-79
2022/09/13 00:30:57;;;;;;;;;;;17.90;99.90;;;;;;4982831;28;19933;-78
2022/09/13 00:33:23;;;;;;;;;;;17.80;99.90;;;;;;4982957;28;19926;-78
2022/09/13 00:35:48;;;;;;;;;;;17.90;99.90;;;;;;4969668;28;20390;-79
2022/09/13 00:38:14;;;;;;;;;;;17.80;99.90;;;;;;4970342;28;19981;-79
2022/09/13 00:40:40;;;;;;;;;;;17.80;99.90;;;;;;4982495;28;20384;-78
2022/09/13 00:43:11;;;;;;;;;;;17.80;99.90;;;;;;4981907;28;19926;-78
2022/09/13 00:45:37;;;;;;;;;;;17.80;99.90;;;;;;4972367;28;19930;-79
2022/09/13 00:48:05;;;;;;;;;;;17.80;99.90;;;;;;4963552;28;20143;-79
2022/09/13 00:50:32;;;;;;;;;;;17.70;99.90;;;;;;4963151;28;19922;-79
2022/09/13 00:53:00;;;;;;;;;;;17.70;99.90;;;;;;4963839;28;19926;-79
2022/09/13 00:55:31;;;;;;;;;;;17.70;99.90;;;;;;4961592;28;20553;-78
2022/09/13 00:58:00;;;;;;;;;;;17.70;99.90;;;;;;4964901;28;19933;-78
2022/09/13 01:00:26;;;;;;;;;;;17.70;99.90;;;;;;4981256;28;19925;-78
2022/09/13 01:02:54;;;;;;;;;;;17.70;99.90;;;;;;4992021;23;19910;-78
2022/09/13 01:05:21;;;;;;;;;;;17.70;99.90;;;;;;4983009;28;19937;-78
2022/09/13 01:07:46;;;;;;;;;;;17.70;99.90;;;;;;4982611;28;19933;-78
2022/09/13 01:10:12;;;;;;;;;;;17.70;99.90;;;;;;4981360;28;19926;-79
2022/09/13 01:12:48;;;;;;;;;;;17.70;99.90;;;;;;4982876;28;20325;-79
2022/09/13 01:15:14;;;;;;;;;;;17.70;99.90;;;;;;4983417;28;19952;-79
2022/09/13 01:17:40;;;;;;;;;;;17.70;99.90;;;;;;4983255;28;20440;-78
2022/09/13 01:20:08;;;;;;;;;;;17.70;99.90;;;;;;4983164;28;19926;-78
2022/09/13 01:22:44;;;;;;;;;;;17.70;99.90;;;;;;4982945;28;19926;-78
2022/09/13 01:25:27;;;;;;;;;;;17.70;99.90;;;;;;4982252;28;20177;-78
2022/09/13 01:28:11;;;;;;;;;;;17.70;99.90;;;;;;4983242;28;19926;-79
2022/09/13 01:30:39;;;;;;;;;;;17.70;99.90;;;;;;4981909;28;19936;-79
2022/09/13 01:33:07;;;;;;;;;;;17.70;99.90;;;;;;4983233;28;19926;-78
2022/09/13 01:35:51;;;;;;;;;;;17.70;99.90;;;;;;4972170;28;19934;-78
2022/09/13 01:38:25;;;;;;;;;;;17.70;99.90;;;;;;4970350;28;19926;-79
2022/09/13 01:41:05;;;;;;;;;;;17.70;99.90;;;;;;4981067;28;20415;-79
2022/09/13 01:43:39;;;;;;;;;;;17.70;99.90;;;;;;4982882;28;19933;-79
2022/09/13 01:46:12;;;;;;;;;;;17.70;99.90;;;;;;4981827;28;19930;-79
2022/09/13 01:48:54;;;;;;;;;;;17.70;99.90;;;;;;4983333;28;19922;-79
2022/09/13 01:51:25;;;;;;;;;;;17.60;99.90;;;;;;4981628;28;20051;-78
2022/09/13 01:53:59;;;;;;;;;;;17.60;99.90;;;;;;4983093;28;19925;-78
2022/09/13 01:56:28;;;;;;;;;;;17.60;99.90;;;;;;4986494;28;20024;-78
2022/09/13 01:58:56;;;;;;;;;;;17.60;99.90;;;;;;4986700;28;19925;-78
2022/09/13 02:01:30;;;;;;;;;;;17.60;99.90;;;;;;4986186;28;20598;-78
2022/09/13 02:03:55;;;;;;;;;;;17.60;99.90;;;;;;4986665;28;19925;-78
2022/09/13 02:06:23;;;;;;;;;;;17.60;99.90;;;;;;4986360;28;20010;-79
2022/09/13 02:08:51;;;;;;;;;;;17.60;99.90;;;;;;4971062;28;19918;-79
2022/09/13 02:11:21;;;;;;;;;;;17.60;99.90;;;;;;4966958;28;20057;-78
2022/09/13 02:13:58;;;;;;;;;;;17.60;99.90;;;;;;4966902;28;20013;-78
2022/09/13 02:16:26;;;;;;;;;;;17.60;99.90;;;;;;4965553;28;19926;-78
2022/09/13 02:18:55;;;;;;;;;;;17.60;99.90;;;;;;4966447;28;19918;-78
2022/09/13 02:21:23;;;;;;;;;;;17.60;99.90;;;;;;4966593;28;20009;-78
2022/09/13 02:23:50;;;;;;;;;;;17.70;99.90;;;;;;4965704;28;19933;-79
2022/09/13 02:26:17;;;;;;;;;;;17.70;99.90;;;;;;4966938;28;20204;-78
2022/09/13 02:28:46;;;;;;;;;;;17.60;99.90;;;;;;4966611;28;20021;-78
2022/09/13 02:31:13;;;;;;;;;;;17.60;99.90;;;;;;4967330;28;19933;-78
2022/09/13 02:33:42;;;;;;;;;;;17.60;99.90;;;;;;4966215;28;19926;-79
2022/09/13 02:36:13;;;;;;;;;;;17.50;99.90;;;;;;4984362;28;19930;-78
2022/09/13 02:38:46;;;;;;;;;;;17.40;99.90;;;;;;4983778;28;19926;-78
2022/09/13 02:41:16;;;;;;;;;;;17.40;99.90;;;;;;4985174;28;19933;-78
2022/09/13 02:43:44;;;;;;;;;;;17.40;99.90;;;;;;4984946;28;19929;-78
2022/09/13 02:46:22;;;;;;;;;;;17.40;99.90;;;;;;4985420;28;20621;-78
2022/09/13 02:48:48;;;;;;;;;;;17.40;99.90;;;;;;4985735;28;19929;-79
2022/09/13 02:51:22;;;;;;;;;;;17.40;99.90;;;;;;4969124;28;19926;-78
2022/09/13 02:53:59;;;;;;;;;;;17.30;99.90;;;;;;4965390;28;19952;-78
2022/09/13 02:56:33;;;;;;;;;;;17.30;99.90;;;;;;4966511;28;19926;-78
2022/09/13 02:59:11;;;;;;;;;;;17.30;99.90;;;;;;4966502;28;19974;-78
2022/09/13 03:01:38;;;;;;;;;;;17.30;99.90;;;;;;4965753;28;20249;-78
2022/09/13 03:04:04;;;;;;;;;;;17.30;99.90;;;;;;4965997;28;19926;-79
2022/09/13 03:06:29;;;;;;;;;;;17.30;99.90;;;;;;4963776;28;19926;-78
2022/09/13 03:08:56;;;;;;;;;;;17.30;99.90;;;;;;4964194;28;19933;-78
2022/09/13 03:11:21;;;;;;;;;;;17.30;99.90;;;;;;4965886;28;19926;-78
2022/09/13 03:13:59;;;;;;;;;;;17.30;99.90;;;;;;4965706;28;19989;-78
2022/09/13 03:16:51;;;;;;;;;;;17.30;99.90;;;;;;4966110;28;20036;-79
2022/09/13 03:19:21;;;;;;;;;;;17.30;99.90;;;;;;4964299;28;19969;-78
2022/09/13 03:22:13;;;;;;;;;;;17.30;99.90;;;;;;4970749;28;20638;-78
2022/09/13 03:24:50;;;;;;;;;;;17.30;99.90;;;;;;4982767;28;20024;-78
2022/09/13 03:27:16;;;;;;;;;;;17.30;99.90;;;;;;4985103;28;20395;-79
2022/09/13 03:30:00;;;;;;;;;;;17.30;99.90;;;;;;4984781;28;20012;-78
2022/09/13 03:32:45;;;;;;;;;;;17.30;99.90;;;;;;4984954;28;19993;-78
2022/09/13 03:35:25;;;;;;;;;;;17.30;99.90;;;;;;4975989;28;20080;-78
2022/09/13 03:37:53;;;;;;;;;;;17.30;99.90;;;;;;4964311;28;19930;-78
2022/09/13 03:40:28;;;;;;;;;;;17.30;99.90;;;;;;4965313;28;20001;-78
2022/09/13 03:43:06;;;;;;;;;;;17.30;99.90;;;;;;4965053;28;19930;-78
2022/09/13 03:45:34;;;;;;;;;;;17.30;99.90;;;;;;4965114;28;19927;-79
2022/09/13 03:48:01;;;;;;;;;;;17.30;99.90;;;;;;4965430;28;20401;-79
2022/09/13 03:50:27;;;;;;;;;;;17.30;99.90;;;;;;4964066;28;20017;-78
2022/09/13 03:52:57;;;;;;;;;;;17.20;99.90;;;;;;4976208;28;20020;-78
2022/09/13 03:55:22;;;;;;;;;;;17.20;99.90;;;;;;4983265;28;20438;-78
2022/09/13 03:57:48;;;;;;;;;;;17.20;99.90;;;;;;4984049;28;19930;-78
2022/09/13 04:00:14;;;;;;;;;;;17.20;99.90;;;;;;4984629;28;20056;-78
2022/09/13 04:02:40;;;;;;;;;;;17.20;99.90;;;;;;4984174;28;20342;-78
2022/09/13 04:05:06;;;;;;;;;;;17.20;99.90;;;;;;4983930;28;20455;-79
2022/09/13 04:07:31;;;;;;;;;;;17.20;99.90;;;;;;4983096;28;19933;-78
2022/09/13 04:09:57;;;;;;;;;;;17.20;99.90;;;;;;4984753;28;19930;-78
2022/09/13 04:12:22;;;;;;;;;;;17.20;99.90;;;;;;4982922;28;19969;-78
2022/09/13 04:14:48;;;;;;;;;;;17.20;99.90;;;;;;4984134;28;19926;-79
2022/09/13 04:17:13;;;;;;;;;;;17.20;99.90;;;;;;4979212;28;19927;-79
2022/09/13 04:19:39;;;;;;;;;;;17.20;99.90;;;;;;4964381;28;19930;-78
2022/09/13 04:22:05;;;;;;;;;;;17.20;99.90;;;;;;4964402;28;20384;-78
2022/09/13 04:24:30;;;;;;;;;;;17.20;99.90;;;;;;4963194;28;20507;-78
2022/09/13 04:26:56;;;;;;;;;;;17.20;99.90;;;;;;4965222;28;19926;-79
2022/09/13 04:29:23;;;;;;;;;;;17.20;99.90;;;;;;4964874;28;19932;-78
2022/09/13 04:31:49;;;;;;;;;;;17.20;99.90;;;;;;4964120;28;19949;-79
2022/09/13 04:34:16;;;;;;;;;;;17.20;99.90;;;;;;4964562;28;19926;-79
2022/09/13 04:36:41;;;;;;;;;;;17.20;99.90;;;;;;4984007;28;19980;-78
2022/09/13 04:39:07;;;;;;;;;;;17.10;99.90;;;;;;4982518;28;19922;-79
2022/09/13 04:41:33;;;;;;;;;;;17.20;99.90;;;;;;4982566;28;20565;-78
2022/09/13 04:43:59;;;;;;;;;;;17.10;99.90;;;;;;4984208;28;19932;-79
2022/09/13 04:46:25;;;;;;;;;;;17.10;99.90;;;;;;4978327;28;19965;-78
2022/09/13 04:48:50;;;;;;;;;;;17.10;99.90;;;;;;4963945;28;20522;-79
2022/09/13 04:51:16;;;;;;;;;;;17.10;99.90;;;;;;4964335;28;19926;-78
2022/09/13 04:53:43;;;;;;;;;;;17.10;99.90;;;;;;4994345;28;20399;-78
2022/09/13 04:56:09;;;;;;;;;;;17.10;99.90;;;;;;4964506;28;19927;-78
2022/09/13 04:58:34;;;;;;;;;;;17.10;99.90;;;;;;4964062;28;19988;-79
2022/09/13 05:01:01;;;;;;;;;;;17.00;99.90;;;;;;4964301;28;20012;-78
2022/09/13 05:03:28;;;;;;;;;;;17.10;99.90;;;;;;4965474;28;20032;-79
2022/09/13 05:05:54;;;;;;;;;;;17.10;99.90;;;;;;4976202;28;20397;-79
2022/09/13 05:08:19;;;;;;;;;;;17.10;99.90;;;;;;4973337;28;19933;-80
2022/09/13 05:10:45;;;;;;;;;;;17.10;99.90;;;;;;4968225;28;19922;-79
2022/09/13 05:13:11;;;;;;;;;;;17.10;99.90;;;;;;4972204;28;20031;-79
2022/09/13 05:15:36;;;;;;;;;;;17.10;99.90;;;;;;4983216;28;19981;-78
2022/09/13 05:18:02;;;;;;;;;;;17.10;99.90;;;;;;4972823;28;19924;-77
2022/09/13 05:20:27;;;;;;;;;;;17.10;99.90;;;;;;4964369;28;20017;-78
2022/09/13 05:22:54;;;;;;;;;;;17.10;99.90;;;;;;4964955;28;20516;-78
2022/09/13 05:25:19;;;;;;;;;;;17.10;99.90;;;;;;4962447;28;20397;-78
2022/09/13 05:27:45;;;;;;;;;;;17.10;99.90;;;;;;4969939;28;19976;-77
2022/09/13 05:30:11;;;;;;;;;;;17.10;99.90;;;;;;4980890;28;20287;-78
2022/09/13 05:32:36;;;;;;;;;;;17.10;99.90;;;;;;4980350;28;19926;-79
2022/09/13 05:35:02;;;;;;;;;;;17.10;99.90;;;;;;4988462;28;19922;-78
2022/09/13 05:37:27;;;;;;;;;;;17.10;99.90;;;;;;5001298;28;20423;-78
2022/09/13 05:39:53;;;;;;;;;;;17.10;99.90;;;;;;4978374;28;19922;-78
2022/09/13 05:42:18;;;;;;;;;;;17.10;99.90;;;;;;4978335;28;19965;-80
2022/09/13 05:44:44;;;;;;;;;;;17.20;99.90;;;;;;4992015;28;19948;-80
2022/09/13 05:47:12;;;;;;;;;;;17.10;99.90;;;;;;4974736;28;19926;-81
2022/09/13 05:49:38;;;;;;;;;;;17.10;99.90;;;;;;4971773;28;19932;-73
2022/09/13 05:52:03;;;;;;;;;;;17.10;99.90;;;;;;4979466;28;20295;-75
2022/09/13 05:54:29;;;;;;;;;;;17.10;99.90;;;;;;4983814;28;19965;-76
2022/09/13 05:56:56;;;;;;;;;;;17.10;99.90;;;;;;4953756;28;20025;-74
2022/09/13 05:59:21;;;;;;;;;;;17.10;99.90;;;;;;4979771;28;19922;-76
2022/09/13 06:01:47;;;;;;;;;;;17.10;99.90;;;;;;4978568;28;20355;-76
2022/09/13 06:04:13;;;;;;;;;;;17.10;99.90;;;;;;4981430;28;19933;-77
2022/09/13 06:06:38;;;;;;;;;;;17.10;99.90;;;;;;4982172;28;20380;-76
2022/09/13 06:09:07;;;;;;;;;;;17.00;99.90;;;;;;4980007;28;19927;-76
2022/09/13 06:11:33;;;;;;;;;;;17.00;99.90;;;;;;4968203;28;19934;-76
2022/09/13 06:13:58;;;;;;;;;;;16.90;99.90;;;;;;4970823;28;19937;-76
2022/09/13 06:16:24;;;;;;;;;;;16.90;99.90;;;;;;4980851;28;19930;-76
2022/09/13 06:18:49;;;;;;;;;;;16.90;99.90;;;;;;4991600;28;19930;-76
2022/09/13 06:21:16;;;;;;;;;;;16.90;99.90;;;;;;4989698;28;19933;-76
2022/09/13 06:23:50;;;;;;;;;;;16.90;99.90;;;;;;4996588;28;20067;-76
2022/09/13 06:26:17;;;;;;;;;;;16.90;99.90;;;;;;5003513;28;19945;-76
2022/09/13 06:28:46;;;;;;;;;;;16.90;99.90;;;;;;5004522;28;19972;-76
2022/09/13 06:31:13;;;;;;;;;;;16.90;99.90;;;;;;4990305;28;19965;-78
2022/09/13 06:33:39;;;;;;;;;;;16.80;99.90;;;;;;4979925;28;19925;-76
2022/09/13 06:36:06;;;;;;;;;;;16.90;99.90;;;;;;4988947;28;19925;-76
2022/09/13 06:38:31;;;;;;;;;;;16.90;99.90;;;;;;5006516;28;20482;-76
2022/09/13 06:41:05;;;;;;;;;;;16.90;99.90;;;;;;4999879;28;20082;-76
2022/09/13 06:43:31;;;;;;;;;;;16.90;99.90;;;;;;4982558;28;19967;-76
2022/09/13 06:46:00;;;;;;;;;;;16.80;99.90;;;;;;4983704;28;19992;-76
2022/09/13 06:48:26;;;;;;;;;;;16.90;99.90;;;;;;4981794;28;20009;-77
2022/09/13 06:50:52;;;;;;;;;;;16.90;99.90;;;;;;4988158;28;20012;-76
2022/09/13 06:53:17;;;;;;;;;;;16.80;99.90;;;;;;4996995;28;20008;-76
2022/09/13 06:55:43;;;;;;;;;;;16.90;99.90;;;;;;4980475;28;19926;-76
2022/09/13 06:58:08;;;;;;;;;;;16.90;99.90;;;;;;4984027;28;20292;-76
2022/09/13 07:00:33;;;;;;;;;;;16.90;99.90;;;;;;4984072;28;20009;-76
2022/09/13 07:02:59;;;;;;;;;;;17.00;99.90;;;;;;4984886;28;20360;-76
2022/09/13 07:05:24;;;;;;;;;;;17.00;99.90;;;;;;4966578;28;19956;-76
2022/09/13 07:07:50;;;;;;;;;;;17.00;99.90;;;;;;4982827;28;20371;-76
2022/09/13 07:10:15;;;;;;;;;;;17.00;99.90;;;;;;4983409;28;19933;-76
2022/09/13 07:12:41;;;;;;;;;;;17.00;99.90;;;;;;4984078;28;20076;-76
2022/09/13 07:15:07;;;;;;;;;;;17.10;99.90;;;;;;4983506;28;19933;-76
2022/09/13 07:17:33;;;;;;;;;;;17.10;99.90;;;;;;4983964;28;19926;-76
2022/09/13 07:19:58;;;;;;;;;;;17.10;99.90;;;;;;4984625;28;19933;-76
2022/09/13 07:22:26;;;;;;;;;;;17.20;99.90;;;;;;4982829;28;19925;-76
2022/09/13 07:24:52;;;;;;;;;;;17.20;99.90;;;;;;4982328;28;19957;-76
2022/09/13 07:27:17;;;;;;;;;;;17.20;99.90;;;;;;4983710;28;19926;-76
2022/09/13 07:29:43;;;;;;;;;;;17.20;99.90;;;;;;4982107;28;19933;-76
2022/09/13 07:32:08;;;;;;;;;;;17.20;99.90;;;;;;4984048;28;19953;-76
2022/09/13 07:34:34;;;;;;;;;;;17.20;99.90;;;;;;4980461;28;20021;-76
2022/09/13 07:37:00;;;;;;;;;;;17.20;99.90;;;;;;4963513;28;19973;-76
2022/09/13 07:39:25;;;;;;;;;;;17.20;99.90;;;;;;4964119;28;19926;-76
2022/09/13 07:41:52;;;;;;;;;;;17.20;99.90;;;;;;4963683;28;19926;-76
2022/09/13 07:44:18;;;;;;;;;;;17.30;99.90;;;;;;4963648;28;19926;-76
2022/09/13 07:46:43;;;;;;;;;;;17.30;99.90;;;;;;4963890;28;19926;-76
2022/09/13 07:49:10;;;;;;;;;;;17.30;99.90;;;;;;4964430;28;19927;-76
2022/09/13 07:51:38;;;;;;;;;;;17.30;99.90;;;;;;4963396;28;19930;-76
2022/09/13 07:54:04;;;;;;;;;;;17.30;99.90;;;;;;4962594;28;19952;-76
2022/09/13 07:56:31;;;;;;;;;;;17.30;99.90;;;;;;4962446;28;19984;-76
2022/09/13 07:58:59;;;;;;;;;;;17.30;99.90;;;;;;4962440;28;19926;-76
2022/09/13 08:01:29;;;;;;;;;;;17.30;99.90;;;;;;4964191;28;19934;-76
2022/09/13 08:03:59;;;;;;;;;;;17.30;99.90;;;;;;4962343;28;19930;-76
2022/09/13 08:06:25;;;;;;;;;;;17.30;99.90;;;;;;4962552;28;19933;-76
2022/09/13 08:08:51;;;;;;;;;;;17.30;99.90;;;;;;4962504;28;19942;-76
2022/09/13 08:11:20;;;;;;;;;;;17.30;99.90;;;;;;4963044;28;19937;-76
2022/09/13 08:13:47;;;;;;;;;;;17.30;99.90;;;;;;4963763;28;19930;-76
2022/09/13 08:16:13;;;;;;;;;;;17.30;99.90;;;;;;4962095;28;19926;-76
2022/09/13 08:18:45;;;;;;;;;;;17.30;99.90;;;;;;4963029;28;19926;-77
2022/09/13 08:21:11;;;;;;;;;;;17.30;99.90;;;;;;4963369;28;19926;-76
2022/09/13 08:23:37;;;;;;;;;;;17.40;99.90;;;;;;4962033;28;19937;-77
2022/09/13 08:26:02;;;;;;;;;;;17.40;99.90;;;;;;4962036;28;19926;-76
2022/09/13 08:28:30;;;;;;;;;;;17.40;99.90;;;;;;4962483;28;20021;-76
2022/09/13 08:31:01;;;;;;;;;;;17.40;99.90;;;;;;4963581;28;19965;-77
2022/09/13 08:33:26;;;;;;;;;;;17.40;99.90;;;;;;4963789;28;20022;-76
2022/09/13 08:35:52;;;;;;;;;;;17.40;99.90;;;;;;4975968;28;20093;-76
2022/09/13 08:38:18;;;;;;;;;;;17.40;99.90;;;;;;4982179;28;19933;-76
2022/09/13 08:40:47;;;;;;;;;;;17.40;99.90;;;;;;4982433;28;20347;-76
2022/09/13 08:43:18;;;;;;;;;;;17.40;99.90;;;;;;4965885;28;19926;-77
2022/09/13 08:46:13;;;;;;;;;;;17.40;99.90;;;;;;4973565;28;19926;-78
2022/09/13 08:48:40;;;;;;;;;;;17.40;99.90;;;;;;4963287;28;19945;-76
2022/09/13 08:51:12;;;;;;;;;;;17.40;99.90;;;;;;4964460;28;19980;-77
2022/09/13 08:53:43;;;;;;;;;;;17.50;99.90;;;;;;4980055;28;19926;-78
2022/09/13 08:56:16;;;;;;;;;;;17.50;99.90;;;;;;4981391;28;19922;-78
2022/09/13 08:58:50;;;;;;;;;;;17.50;99.90;;;;;;4963874;28;19933;-78
2022/09/13 09:01:24;;;;;;;;;;;17.50;99.90;;;;;;4978906;28;19928;-76
2022/09/13 09:03:57;;;;;;;;;;;17.50;99.90;;;;;;4982438;28;19929;-76
2022/09/13 09:06:23;;;;;;;;;;;17.50;99.90;;;;;;4983942;28;19930;-75
2022/09/13 09:08:50;;;;;;;;;;;17.60;99.90;;;;;;4983436;28;19934;-76
2022/09/13 09:11:29;;;;;;;;;;;17.60;99.90;;;;;;4968049;28;19926;-76
2022/09/13 09:14:13;;;;;;;;;;;17.60;99.90;;;;;;4966915;28;19926;-75
2022/09/13 09:16:41;;;;;;;;;;;17.70;99.90;;;;;;4966581;28;20356;-75
2022/09/13 09:19:34;;;;;;;;;;;17.70;99.90;;;;;;4967365;28;20403;-75
2022/09/13 09:22:02;;;;;;;;;;;17.80;99.90;;;;;;4966890;28;19934;-75
2022/09/13 09:24:31;;;;;;;;;;;17.80;99.90;;;;;;4968029;28;20340;-76
2022/09/13 09:26:57;;;;;;;;;;;17.80;99.90;;;;;;4968837;28;19933;-75
2022/09/13 09:29:24;;;;;;;;;;;17.70;99.90;;;;;;4964714;28;20300;-75
2022/09/13 09:31:57;;;;;;;;;;;17.70;99.90;;;;;;4965595;28;21616;-75
2022/09/13 09:34:23;;;;;;;;;;;17.60;99.90;;;;;;4968147;28;19930;-77
2022/09/13 09:37:00;;;;;;;;;;;17.60;99.90;;;;;;4985534;28;20475;-78
2022/09/13 09:39:28;;;;;;;;;;;17.60;99.90;;;;;;4987394;28;20524;-76
2022/09/13 09:41:56;;;;;;;;;;;17.60;99.90;;;;;;4984557;28;19977;-75
2022/09/13 09:44:23;;;;;;;;;;;17.70;99.90;;;;;;4985325;28;19933;-75
2022/09/13 09:47:09;;;;;;;;;;;17.70;99.90;;;;;;4984902;28;19925;-76
2022/09/13 09:52:27;;;;;;;;;;;17.80;99.90;;;;;;4973623;28;19926;-78
2022/09/13 09:54:56;;;;;;;;;;;17.80;99.90;;;;;;4970097;28;20017;-75
2022/09/13 09:57:41;;;;;;;;;;;17.80;99.90;;;;;;4970062;28;19926;-75
2022/09/13 10:00:09;;;;;;;;;;;17.90;99.90;;;;;;4969295;28;19926;-75
2022/09/13 10:02:38;;;;;;;;;;;17.90;99.90;;;;;;4972548;28;20415;-75
2022/09/13 10:05:04;;;;;;;;;;;17.80;99.90;;;;;;4980111;28;19976;-75
2022/09/13 10:07:31;;;;;;;;;;;17.80;99.90;;;;;;4982986;28;19930;-77
2022/09/13 10:10:26;;;;;;;;;;;17.80;99.90;;;;;;4977242;28;19926;-75
2022/09/13 10:12:54;;;;;;;;;;;17.80;99.90;;;;;;4972813;28;20438;-74
2022/09/13 10:15:22;;;;;;;;;;;17.80;99.90;;;;;;4982502;28;19949;-79
2022/09/13 10:18:02;;;;;;;;;;;17.90;99.90;;;;;;4966243;28;19957;-78
2022/09/13 10:20:28;;;;;;;;;;;18.00;99.90;;;;;;4991938;28;19929;-74
2022/09/13 10:23:12;;;;;;;;;;;17.90;99.90;;;;;;4995561;28;19925;-74
2022/09/13 10:25:38;;;;;;;;;;;18.00;99.90;;;;;;4993520;28;19926;-74
2022/09/13 10:28:04;;;;;;;;;;;18.00;99.90;;;;;;4992678;28;20392;-73
2022/09/13 10:30:45;;;;;;;;;;;18.00;99.90;;;;;;4991080;28;19928;-74
2022/09/13 10:33:24;;;;;;;;;;;18.00;99.90;;;;;;4984580;28;20339;-73
2022/09/13 10:35:52;;;;;;;;;;;18.10;99.90;;;;;;4985533;28;19925;-73
2022/09/13 10:38:29;;;;;;;;;;;18.10;99.90;;;;;;4976947;28;19995;-72
2022/09/13 10:40:55;;;;;;;;;;;18.10;99.90;;;;;;4990004;28;20045;-73
2022/09/13 10:43:21;;;;;;;;;;;18.00;99.90;;;;;;4994856;28;20444;-74
2022/09/13 10:45:50;;;;;;;;;;;18.00;99.90;;;;;;4998356;28;20300;-77
2022/09/13 10:48:17;;;;;;;;;;;18.10;99.90;;;;;;4993998;28;19926;-77
2022/09/13 10:51:01;;;;;;;;;;;18.20;99.90;;;;;;5001641;28;19925;-77
2022/09/13 10:53:32;;;;;;;;;;;18.20;99.90;;;;;;4998059;28;19933;-77
2022/09/13 10:55:58;;;;;;;;;;;18.20;99.90;;;;;;4995763;28;19926;-77
2022/09/13 10:58:23;;;;;;;;;;;18.20;99.90;;;;;;4987121;28;19980;-77
2022/09/13 11:00:58;;;;;;;;;;;18.20;99.90;;;;;;4996304;28;19930;-77
2022/09/13 11:03:30;;;;;;;;;;;18.20;99.90;;;;;;4983185;28;20388;-77
2022/09/13 11:06:01;;;;;;;;;;;18.30;99.90;;;;;;4982336;28;19932;-74
2022/09/13 11:08:41;;;;;;;;;;;18.40;99.90;;;;;;4977276;28;20431;-73
2022/09/13 11:11:09;;;;;;;;;;;18.40;99.90;;;;;;4982162;28;19925;-74
2022/09/13 11:13:34;;;;;;;;;;;18.40;99.90;;;;;;4969637;28;19973;-76
2022/09/13 11:16:03;;;;;;;;;;;18.40;99.90;;;;;;4973638;28;19984;-75
2022/09/13 11:18:37;;;;;;;;;;;18.40;99.90;;;;;;5002454;28;19969;-75
2022/09/13 11:21:06;;;;;;;;;;;18.40;99.90;;;;;;4993395;28;20470;-77
2022/09/13 11:23:50;;;;;;;;;;;18.40;99.90;;;;;;4994623;28;19930;-76
2022/09/13 11:26:22;;;;;;;;;;;18.30;99.90;;;;;;4996497;28;19925;-76
2022/09/13 11:28:50;;;;;;;;;;;18.30;99.90;;;;;;4984407;28;20376;-76
2022/09/13 11:31:28;;;;;;;;;;;18.40;99.90;;;;;;4988568;28;20388;-76
2022/09/13 11:33:56;;;;;;;;;;;18.40;99.90;;;;;;4978193;28;20464;-75
2022/09/13 11:36:24;;;;;;;;;;;18.40;99.90;;;;;;4976722;28;20295;-74
2022/09/13 11:39:01;;;;;;;;;;;18.40;99.90;;;;;;4970783;28;19933;-75
2022/09/13 11:41:49;;;;;;;;;;;18.40;99.90;;;;;;4987666;28;19941;-78
2022/09/13 11:44:27;;;;;;;;;;;18.40;99.90;;;;;;4969305;28;19933;-74
2022/09/13 11:47:11;;;;;;;;;;;18.40;99.90;;;;;;4984204;28;19933;-75
2022/09/13 11:49:51;;;;;;;;;;;18.40;99.90;;;;;;4977997;28;19926;-74
2022/09/13 11:52:35;;;;;;;;;;;18.40;99.90;;;;;;4963350;28;19926;-74
2022/09/13 11:55:07;;;;;;;;;;;18.40;99.90;;;;;;4969403;28;19926;-74
2022/09/13 11:57:39;;;;;;;;;;;18.30;99.90;;;;;;4973094;28;19926;-74
2022/09/13 12:00:09;;;;;;;;;;;18.20;99.90;;;;;;4972158;28;20359;-75
2022/09/13 12:02:53;;;;;;;;;;;18.20;99.90;;;;;;4967160;28;19930;-75
2022/09/13 12:05:21;;;;;;;;;;;18.20;99.90;;;;;;4969610;28;19932;-74
2022/09/13 12:08:06;;;;;;;;;;;18.20;99.90;;;;;;4975996;28;19933;-74
2022/09/13 12:10:51;;;;;;;;;;;18.20;99.90;;;;;;4987274;28;19929;-75
2022/09/13 12:13:28;;;;;;;;;;;18.30;99.90;;;;;;4964869;28;19926;-74
2022/09/13 12:15:59;;;;;;;;;;;18.30;99.90;;;;;;4970366;28;19929;-74
2022/09/13 12:18:27;;;;;;;;;;;18.30;99.90;;;;;;4962842;28;19959;-75
2022/09/13 12:20:54;;;;;;;;;;;18.40;99.90;;;;;;4975639;28;19926;-74
2022/09/13 12:23:24;;;;;;;;;;;18.40;99.90;;;;;;4985716;28;19960;-75
2022/09/13 12:25:55;;;;;;;;;;;18.40;99.90;;;;;;4992071;28;19930;-74
2022/09/13 12:28:23;;;;;;;;;;;18.40;99.90;;;;;;4982191;28;19926;-75
2022/09/13 12:30:52;;;;;;;;;;;18.30;99.90;;;;;;4965115;28;19930;-74
2022/09/13 12:33:18;;;;;;;;;;;18.30;99.90;;;;;;4970273;28;19930;-75
2022/09/13 12:35:52;;;;;;;;;;;18.30;99.90;;;;;;4994662;28;19931;-75
2022/09/13 12:38:27;;;;;;;;;;;18.30;99.90;;;;;;4970676;28;20479;-74
2022/09/13 12:41:11;;;;;;;;;;;18.40;99.90;;;;;;4974129;28;19992;-74
2022/09/13 12:43:48;;;;;;;;;;;18.40;99.90;;;;;;4969440;28;20016;-75
2022/09/13 12:46:33;;;;;;;;;;;18.40;99.90;;;;;;4966982;28;20387;-74
2022/09/13 12:49:06;;;;;;;;;;;18.30;99.90;;;;;;4968619;28;20291;-74
2022/09/13 12:51:50;;;;;;;;;;;18.40;99.90;;;;;;4976315;28;20576;-75
2022/09/13 12:54:22;;;;;;;;;;;18.40;99.90;;;;;;4973247;28;20009;-75
2022/09/13 12:56:57;;;;;;;;;;;18.40;99.90;;;;;;4962877;28;19937;-75
2022/09/13 12:59:25;;;;;;;;;;;18.50;99.90;;;;;;4963586;28;20013;-75
2022/09/13 13:01:51;;;;;;;;;;;18.50;99.90;;;;;;4972878;28;20024;-75
2022/09/13 13:04:25;;;;;;;;;;;18.50;99.90;;;;;;4983403;28;20024;-74
2022/09/13 13:07:05;;;;;;;;;;;18.50;99.90;;;;;;4983067;28;19933;-73
2022/09/13 13:09:43;;;;;;;;;;;18.60;99.90;;;;;;4988147;28;19925;-73
2022/09/13 13:12:10;;;;;;;;;;;18.60;99.90;;;;;;4984558;28;19953;-74
2022/09/13 13:14:35;;;;;;;;;;;18.60;99.90;;;;;;4971622;28;19937;-73
2022/09/13 13:17:20;;;;;;;;;;;18.50;99.90;;;;;;4963959;28;20305;-74
2022/09/13 13:19:45;;;;;;;;;;;18.50;99.90;;;;;;4962489;28;19933;-74
2022/09/13 13:22:46;;;;;;;;;;;18.50;99.90;;;;;;4974385;28;20369;-73
2022/09/13 13:25:32;;;;;;;;;;;18.60;99.90;;;;;;4976504;28;19959;-74
2022/09/13 13:27:58;;;;;;;;;;;18.60;99.90;;;;;;4963231;28;20415;-74
2022/09/13 13:30:33;;;;;;;;;;;18.60;99.90;;;;;;4964192;28;19926;-74
2022/09/13 13:33:12;;;;;;;;;;;18.60;99.90;;;;;;4964462;28;19926;-74
2022/09/13 13:35:37;;;;;;;;;;;18.60;99.90;;;;;;4979246;28;19949;-74
2022/09/13 13:38:21;;;;;;;;;;;18.70;99.90;;;;;;4981106;28;20340;-74
2022/09/13 13:40:49;;;;;;;;;;;18.60;99.90;;;;;;4971025;28;20392;-74
2022/09/13 13:43:33;;;;;;;;;;;18.60;99.90;;;;;;4976547;28;19929;-74
2022/09/13 13:46:11;;;;;;;;;;;18.60;99.90;;;;;;4994278;28;20029;-74
2022/09/13 13:48:40;;;;;;;;;;;18.60;99.90;;;;;;4982765;28;20304;-74
2022/09/13 13:51:12;;;;;;;;;;;18.60;99.90;;;;;;4983806;28;19926;-74
2022/09/13 13:53:38;;;;;;;;;;;18.60;99.90;;;;;;4985333;28;19932;-74
2022/09/13 13:56:14;;;;;;;;;;;18.60;99.90;;;;;;4968355;28;19926;-74
2022/09/13 13:58:45;;;;;;;;;;;18.60;99.90;;;;;;4970436;28;19926;-74
2022/09/13 14:01:13;;;;;;;;;;;18.60;99.90;;;;;;4967160;28;19981;-73
2022/09/13 14:03:51;;;;;;;;;;;18.50;99.90;;;;;;4970613;28;19926;-73
2022/09/13 14:06:29;;;;;;;;;;;18.50;99.90;;;;;;4995223;28;19927;-73
2022/09/13 14:09:19;;;;;;;;;;;18.50;99.90;;;;;;4986800;28;19926;-74
2022/09/13 14:12:00;;;;;;;;;;;18.50;99.90;;;;;;4981070;28;20010;-73
2022/09/13 14:14:39;;;;;;;;;;;18.50;99.90;;;;;;4983331;28;19996;-74
2022/09/13 14:17:20;;;;;;;;;;;18.50;99.90;;;;;;4976167;28;19933;-74
2022/09/13 14:19:47;;;;;;;;;;;18.50;99.90;;;;;;4974762;28;20361;-74
2022/09/13 14:22:14;;;;;;;;;;;18.50;99.90;;;;;;4963172;28;19922;-74
2022/09/13 14:24:47;;;;;;;;;;;18.50;99.90;;;;;;4975920;28;20363;-75
2022/09/13 14:27:20;;;;;;;;;;;18.50;99.90;;;;;;4975833;28;20432;-74
2022/09/13 14:29:50;;;;;;;;;;;18.50;99.90;;;;;;4972800;28;19926;-74
2022/09/13 14:32:18;;;;;;;;;;;18.50;99.90;;;;;;4973998;28;19925;-74
2022/09/13 14:34:52;;;;;;;;;;;18.50;99.90;;;;;;4972625;28;19926;-74
2022/09/13 14:37:21;;;;;;;;;;;18.50;99.90;;;;;;4973605;28;20085;-74